Thursday, November 23, 2017, 7:21 PM EST
Back to Local

KTEB, Teterboro Airport

Location: South Hackensack, NJ, United States Lat: 40.867
Local Time: 7:21 PM EST ( 0:21 GMT) Lon: -74.05
Time Zone: US/Eastern Elev: 9 ft

Show me the last for .
Show Decoded

2017-11-23 18:51 METAR KTEB 232351Z 26004KT 10SM CLR 03/M07 A3002 RMK AO2 SLP164 T00331067 10072
                 20033 53003 =
2017-11-23 17:51 METAR KTEB 232251Z 28005KT 10SM CLR 04/M07 A3001 RMK AO2 SLP163 T00391072 =
2017-11-23 16:51 METAR KTEB 232151Z 26003KT 10SM CLR 05/M08 A3001 RMK AO2 SLP161 T00501078 =
2017-11-23 15:51 METAR KTEB 232051Z 24003KT 10SM CLR 06/M08 A3001 RMK AO2 SLP161 T00611078 56014
                 =
2017-11-23 14:51 METAR KTEB 231951Z VRB03KT 10SM CLR 07/M08 A3001 RMK AO2 SLP161 T00671078 =
2017-11-23 13:51 METAR KTEB 231851Z 28006KT 10SM CLR 07/M07 A3002 RMK AO2 SLP166 T00671072 =
2017-11-23 12:51 METAR KTEB 231751Z COR 32005KT 10SM CLR 06/M07 A3005 RMK AO2 SLP174 T00611072
                 10061 21011 56023 =
2017-11-23 11:51 METAR KTEB 231651Z 00000KT 10SM CLR 04/M07 A3006 RMK AO2 SLP180 T00441072 =
2017-11-23 10:51 METAR KTEB 231551Z 29006KT 10SM CLR 03/M07 A3009 RMK AO2 SLP190 T00331072 =
2017-11-23 09:51 METAR KTEB 231451Z 34007KT 10SM CLR 02/M07 A3012 RMK AO2 SLP198 T00221072 50002
                 =
2017-11-23 08:51 METAR KTEB 231351Z 32005KT 10SM CLR 02/M07 A3012 RMK AO2 SLP200 T00171072 =
2017-11-23 07:51 METAR KTEB 231251Z 32004KT 10SM CLR 01/M07 A3012 RMK AO2 SLP198 T00061067 =
2017-11-23 06:51 METAR KTEB 231151Z 25003KT 10SM CLR M01/M08 A3011 RMK AO2 PRESRR SLP196 70005
                 T10061078 10011 21011 53010 =
2017-11-23 05:51 METAR KTEB 231051Z 32007KT 10SM CLR M01/M07 A3009 RMK AO2 SLP189 T10111072 =
2017-11-23 04:51 METAR KTEB 230951Z 33005KT 10SM CLR 00/M07 A3008 RMK AO2 SLP185 T00001072 =
2017-11-23 03:51 METAR KTEB 230851Z 33007KT 10SM CLR 00/M07 A3008 RMK AO2 SLP186 T00001072 58001
                 =
2017-11-23 02:51 METAR KTEB 230751Z 32008KT 10SM CLR 00/M07 A3010 RMK AO2 SLP194 T00001072 =
2017-11-23 01:51 METAR KTEB 230651Z VRB05KT 10SM CLR 01/M07 A3009 RMK AO2 SLP190 T00061072 =
2017-11-23 00:51 METAR KTEB 230551Z 34009KT 10SM CLR 01/M08 A3008 RMK AO2 SLP187 T00111078 10050
                 20011 50004 =
2017-11-22 23:51 METAR KTEB 230451Z 31012KT 10SM CLR 02/M07 A3009 RMK AO2 SLP188 T00171072
                 401220017 =
2017-11-22 22:51 METAR KTEB 230351Z 31015G21KT 10SM CLR 02/M07 A3008 RMK AO2 SLP186 T00221067 =
2017-11-22 21:51 METAR KTEB 230251Z 32011G21KT 10SM CLR 03/M06 A3007 RMK AO2 SLP182 T00281061
                 51016 =
2017-11-22 20:51 METAR KTEB 230151Z 31016G26KT 10SM CLR 03/M06 A3006 RMK AO2 PK WND 31026/0150
                 SLP178 T00331056 =
2017-11-22 19:51 METAR KTEB 230051Z 31013G22KT 10SM BKN043 04/M05 A3004 RMK AO2 SLP173 T00391050
                 =

Support USWX by starting your Amazon purchase here.